Aviation Digital Data Service (ADDS)

Output produced by METARs form (1536 UTC 18 November 2017)
found at http://aviationweather.gov/adds/metars/
 
KARA 181130Z 1812/1912 20009KT P6SM SCT035 
     FM181600 22015G24KT P6SM BKN030 
     FM181900 24018G26KT P6SM VCSH OVC035 
     TEMPO 1823/1824 4SM -SHRA 
     FM190000 32016G24KT P6SM VCSH SCT030 OVC060 
     FM190300 36014G22KT P6SM FEW060 SCT200